createdAt,value
2023-02-11T00:00:13.951Z,32.10
2023-02-11T00:02:48.849Z,32.10
2023-02-11T00:05:23.767Z,32.10
2023-02-11T00:07:58.729Z,32.10
2023-02-11T00:10:33.983Z,32.10
2023-02-11T00:13:08.858Z,32.10
2023-02-11T00:15:43.823Z,32.00
2023-02-11T00:18:18.783Z,32.00
2023-02-11T00:20:54.089Z,32.00
2023-02-11T00:23:29.070Z,32.10
2023-02-11T00:26:06.059Z,32.10
2023-02-11T00:28:41.203Z,32.10
2023-02-11T00:31:21.731Z,32.10
2023-02-11T00:33:56.707Z,32.10
2023-02-11T00:36:32.155Z,32.10
2023-02-11T00:39:07.549Z,32.00
2023-02-11T00:41:43.769Z,32.10
2023-02-11T00:44:21.236Z,32.20
2023-02-11T00:46:56.145Z,32.20
2023-02-11T00:49:31.174Z,32.30
2023-02-11T00:52:06.629Z,32.40
2023-02-11T00:54:42.827Z,32.40
2023-02-11T00:57:17.693Z,32.40
2023-02-11T00:59:52.615Z,32.40
2023-02-11T01:02:27.647Z,32.40
2023-02-11T01:05:02.684Z,32.30
2023-02-11T01:07:37.680Z,32.40
2023-02-11T01:10:13.471Z,32.40
2023-02-11T01:12:48.518Z,32.40
2023-02-11T01:15:23.554Z,32.40
2023-02-11T01:17:58.618Z,32.40
2023-02-11T01:20:33.587Z,32.50
2023-02-11T01:23:08.489Z,32.50
2023-02-11T01:25:44.746Z,32.60
2023-02-11T01:28:23.519Z,32.50
2023-02-11T01:31:00.328Z,32.60
2023-02-11T01:33:35.379Z,32.60
2023-02-11T01:36:12.237Z,32.50
2023-02-11T01:38:47.214Z,32.50
2023-02-11T01:41:22.580Z,32.50
2023-02-11T01:43:57.600Z,32.40
2023-02-11T01:46:36.995Z,32.50
2023-02-11T01:49:27.078Z,32.50
2023-02-11T01:52:35.636Z,32.60
2023-02-11T01:55:32.665Z,32.70
2023-02-11T01:58:07.847Z,32.70
2023-02-11T02:00:43.623Z,32.90
2023-02-11T02:03:22.500Z,32.80
2023-02-11T02:06:10.954Z,32.90
2023-02-11T02:09:04.025Z,32.90
2023-02-11T02:11:38.964Z,32.90
2023-02-11T02:14:13.976Z,32.90
2023-02-11T02:16:48.974Z,32.90
2023-02-11T02:19:45.813Z,32.80
2023-02-11T02:22:52.426Z,32.90
2023-02-11T02:26:16.936Z,32.90
2023-02-11T02:29:01.446Z,32.80
2023-02-11T02:31:39.032Z,32.80
2023-02-11T02:34:44.132Z,32.80
2023-02-11T02:37:29.027Z,32.80
2023-02-11T02:40:13.244Z,32.80
2023-02-11T02:42:49.584Z,32.80
2023-02-11T02:45:24.877Z,32.80
2023-02-11T02:47:59.821Z,32.70
2023-02-11T02:50:37.657Z,32.70
2023-02-11T02:53:32.310Z,32.80
2023-02-11T02:56:46.305Z,32.70
2023-02-11T02:59:58.381Z,32.80
2023-02-11T03:03:04.086Z,32.70
2023-02-11T03:05:57.190Z,32.70
2023-02-11T03:08:47.579Z,32.60
2023-02-11T03:11:23.994Z,32.70
2023-02-11T03:14:03.486Z,32.60
2023-02-11T03:16:40.008Z,32.70
2023-02-11T03:19:21.373Z,32.80
2023-02-11T03:21:57.472Z,32.80
2023-02-11T03:24:37.623Z,32.80
2023-02-11T03:27:40.653Z,32.80
2023-02-11T03:30:22.724Z,32.90
2023-02-11T03:33:14.077Z,32.90
2023-02-11T03:35:58.496Z,33.20
2023-02-11T03:38:47.531Z,32.90
2023-02-11T03:41:24.427Z,33.00
2023-02-11T03:44:00.685Z,33.10
2023-02-11T03:46:39.392Z,33.20
2023-02-11T03:49:18.312Z,33.10
2023-02-11T03:51:54.982Z,33.20
2023-02-11T03:54:31.450Z,33.50
2023-02-11T03:57:06.374Z,33.20
2023-02-11T03:59:59.158Z,33.10
2023-02-11T04:02:37.248Z,33.10
2023-02-11T04:05:16.438Z,33.10
2023-02-11T04:07:51.434Z,33.20
2023-02-11T04:10:26.559Z,33.10
2023-02-11T04:13:01.792Z,33.20
2023-02-11T04:15:36.965Z,33.20
2023-02-11T04:18:11.872Z,33.20
2023-02-11T04:20:46.752Z,33.10
2023-02-11T04:23:21.745Z,33.00
2023-02-11T04:25:56.695Z,32.90
2023-02-11T04:28:31.741Z,32.90
2023-02-11T04:31:06.787Z,32.90
2023-02-11T04:33:41.729Z,32.80
2023-02-11T04:36:16.670Z,32.80
2023-02-11T04:38:51.640Z,32.70
2023-02-11T04:41:26.693Z,32.70
2023-02-11T04:44:01.685Z,32.70
2023-02-11T04:46:37.610Z,32.70
2023-02-11T04:49:16.990Z,32.60
2023-02-11T04:51:51.962Z,32.50
2023-02-11T04:54:26.905Z,32.40
2023-02-11T04:57:01.897Z,32.40
2023-02-11T04:59:36.850Z,32.40
2023-02-11T05:02:11.796Z,32.30
2023-02-11T05:04:46.759Z,32.30
2023-02-11T05:07:21.638Z,32.30
2023-02-11T05:09:56.539Z,32.30
2023-02-11T05:12:31.449Z,32.30
2023-02-11T05:15:06.856Z,32.60
2023-02-11T05:17:41.734Z,32.30
2023-02-11T05:20:16.933Z,32.20
2023-02-11T05:22:52.609Z,32.10
2023-02-11T05:25:27.643Z,32.10
2023-02-11T05:28:03.574Z,32.10
2023-02-11T05:30:38.670Z,32.10
2023-02-11T05:33:13.699Z,32.10
2023-02-11T05:35:49.273Z,32.20
2023-02-11T05:38:24.485Z,32.20
2023-02-11T05:40:59.723Z,32.30
2023-02-11T05:43:35.452Z,32.20
2023-02-11T05:46:10.686Z,32.30
2023-02-11T05:48:45.781Z,32.20
2023-02-11T05:51:20.838Z,32.20
2023-02-11T05:53:55.806Z,32.20
2023-02-11T05:56:30.697Z,32.30
2023-02-11T05:59:05.713Z,32.30
2023-02-11T06:01:41.034Z,32.30
2023-02-11T06:04:15.986Z,32.40
2023-02-11T06:06:50.929Z,32.30
2023-02-11T06:09:26.333Z,32.20
2023-02-11T06:12:01.290Z,32.30
2023-02-11T06:14:36.211Z,32.30
2023-02-11T06:17:12.029Z,32.30
2023-02-11T06:19:47.777Z,32.20
2023-02-11T06:22:22.854Z,32.20
2023-02-11T06:25:01.726Z,32.10
2023-02-11T06:27:37.778Z,32.10
2023-02-11T06:30:13.912Z,32.10
2023-02-11T06:32:48.882Z,32.00
2023-02-11T06:35:24.007Z,31.90
2023-02-11T06:37:59.184Z,31.90
2023-02-11T06:40:34.203Z,31.90
2023-02-11T06:43:09.219Z,31.90
2023-02-11T06:45:44.301Z,32.00
2023-02-11T06:48:19.280Z,32.10
2023-02-11T06:50:54.212Z,32.10
2023-02-11T06:53:29.167Z,32.10
2023-02-11T06:56:10.313Z,32.10
2023-02-11T06:58:45.954Z,32.00
2023-02-11T07:01:21.676Z,32.00
2023-02-11T07:03:56.750Z,32.00
2023-02-11T07:06:31.674Z,32.00
2023-02-11T07:09:07.790Z,32.00
2023-02-11T07:11:43.064Z,32.00
2023-02-11T07:14:18.111Z,32.10
2023-02-11T07:16:53.112Z,32.00
2023-02-11T07:19:28.116Z,32.00
2023-02-11T07:22:03.098Z,32.00
2023-02-11T07:24:38.047Z,32.00
2023-02-11T07:27:13.187Z,32.00
2023-02-11T07:29:48.698Z,32.00
2023-02-11T07:32:23.657Z,32.00
2023-02-11T07:34:59.012Z,32.00
2023-02-11T07:37:35.507Z,32.00
2023-02-11T07:40:11.309Z,32.00
2023-02-11T07:42:46.253Z,32.10
2023-02-11T07:45:21.169Z,32.10
2023-02-11T07:47:56.138Z,32.00
2023-02-11T07:50:31.061Z,32.00
2023-02-11T07:53:06.169Z,31.90
2023-02-11T07:55:43.013Z,32.00
2023-02-11T07:58:17.957Z,31.90
2023-02-11T08:00:52.967Z,31.90
2023-02-11T08:03:28.027Z,31.90
2023-02-11T08:06:07.721Z,31.80
2023-02-11T08:08:43.473Z,31.90
2023-02-11T08:11:28.828Z,31.90
2023-02-11T08:14:03.928Z,31.80
2023-02-11T08:16:39.835Z,31.80
2023-02-11T08:19:16.886Z,31.70
2023-02-11T08:21:56.937Z,31.60
2023-02-11T08:24:31.890Z,31.60
2023-02-11T08:27:06.911Z,31.60
2023-02-11T08:29:42.020Z,31.50
2023-02-11T08:32:16.977Z,31.60
2023-02-11T08:34:53.240Z,31.50
2023-02-11T08:37:28.245Z,31.40
2023-02-11T08:40:03.351Z,31.40
2023-02-11T08:42:38.298Z,31.40
2023-02-11T08:45:13.370Z,31.40
2023-02-11T08:47:48.247Z,31.50
2023-02-11T08:50:23.171Z,31.50
2023-02-11T08:52:58.148Z,31.50
2023-02-11T08:55:33.145Z,31.50
2023-02-11T08:58:08.051Z,31.50
2023-02-11T09:00:45.294Z,31.50
2023-02-11T09:03:20.434Z,31.50
2023-02-11T09:05:56.890Z,31.40
2023-02-11T09:08:33.798Z,31.40
2023-02-11T09:11:10.294Z,31.30
2023-02-11T09:13:45.825Z,31.30
2023-02-11T09:16:26.033Z,31.20
2023-02-11T09:19:02.872Z,31.30
2023-02-11T09:21:37.804Z,31.00
2023-02-11T09:24:12.722Z,31.00
2023-02-11T09:26:47.626Z,31.00
2023-02-11T09:29:22.538Z,30.90
2023-02-11T09:31:57.704Z,30.80
2023-02-11T09:34:33.842Z,30.90
2023-02-11T09:37:08.773Z,30.90
2023-02-11T09:39:46.164Z,30.90
2023-02-11T09:43:12.294Z,30.80
2023-02-11T09:45:47.711Z,30.90
2023-02-11T09:48:23.358Z,30.90
2023-02-11T09:51:02.414Z,30.90
2023-02-11T09:53:42.588Z,31.00
2023-02-11T09:56:17.519Z,31.00
2023-02-11T09:58:52.437Z,31.10
2023-02-11T10:01:48.718Z,31.00
2023-02-11T10:05:18.326Z,31.10
2023-02-11T10:08:45.526Z,31.10
2023-02-11T10:12:10.435Z,31.10
2023-02-11T10:15:10.571Z,31.00
2023-02-11T10:18:19.353Z,31.00
2023-02-11T10:21:25.432Z,31.00
2023-02-11T10:24:05.640Z,31.10
2023-02-11T10:26:41.822Z,30.90
2023-02-11T10:29:45.430Z,30.70
2023-02-11T10:32:51.584Z,30.60
2023-02-11T10:35:27.336Z,30.70
2023-02-11T10:38:02.345Z,30.70
2023-02-11T10:40:37.417Z,30.80
2023-02-11T10:43:16.862Z,30.60
2023-02-11T10:45:54.521Z,30.70
2023-02-11T10:48:35.630Z,30.80
2023-02-11T10:51:14.536Z,30.90
2023-02-11T10:54:21.185Z,30.90
2023-02-11T10:57:00.143Z,30.50
2023-02-11T10:59:40.091Z,30.00
2023-02-11T11:02:34.711Z,30.00
2023-02-11T11:05:20.856Z,29.90
2023-02-11T11:08:00.370Z,29.70
2023-02-11T11:10:50.028Z,28.90
2023-02-11T11:13:34.890Z,28.70
2023-02-11T11:16:28.358Z,28.80
2023-02-11T11:19:09.372Z,28.40
2023-02-11T11:21:47.415Z,28.00
2023-02-11T11:24:41.617Z,27.80
2023-02-11T11:27:22.374Z,27.90
2023-02-11T11:29:57.340Z,27.60
2023-02-11T11:32:33.782Z,27.70
2023-02-11T11:35:29.585Z,27.60
2023-02-11T11:38:05.719Z,27.60
2023-02-11T11:40:40.582Z,27.60
2023-02-11T11:43:15.390Z,27.50
2023-02-11T11:45:59.276Z,27.80
2023-02-11T11:48:41.482Z,27.90
2023-02-11T11:51:17.051Z,27.30
2023-02-11T11:54:03.422Z,27.40
2023-02-11T11:56:53.991Z,26.90
2023-02-11T11:59:30.174Z,27.10
2023-02-11T12:02:40.083Z,27.00
2023-02-11T12:05:26.779Z,26.90
2023-02-11T12:08:41.997Z,27.10
2023-02-11T12:12:14.878Z,27.20
2023-02-11T12:15:15.419Z,27.40
2023-02-11T12:18:32.912Z,29.20
2023-02-11T12:21:32.416Z,27.30
2023-02-11T12:24:50.295Z,27.20
2023-02-11T12:28:24.513Z,27.10
2023-02-11T12:31:06.158Z,27.20
2023-02-11T12:34:08.743Z,27.00
2023-02-11T12:37:15.992Z,27.40
2023-02-11T12:40:01.140Z,27.30
2023-02-11T12:43:16.520Z,27.30
2023-02-11T12:46:29.009Z,27.20
2023-02-11T12:49:10.140Z,27.30
2023-02-11T12:51:55.588Z,27.20
2023-02-11T12:54:40.277Z,27.30
2023-02-11T12:57:34.709Z,27.60
2023-02-11T13:00:14.797Z,27.80
2023-02-11T13:03:07.445Z,28.00
2023-02-11T13:06:00.231Z,28.30
2023-02-11T13:08:47.631Z,28.20
2023-02-11T13:11:30.317Z,28.20
2023-02-11T13:14:32.737Z,28.10
2023-02-11T13:17:22.174Z,28.10
2023-02-11T13:20:15.240Z,28.10
2023-02-11T13:23:04.601Z,28.30
2023-02-11T13:26:06.981Z,28.40
2023-02-11T13:29:18.418Z,28.40
2023-02-11T13:32:05.665Z,28.50
2023-02-11T13:34:43.665Z,28.50
2023-02-11T13:37:36.741Z,28.50
2023-02-11T13:40:25.304Z,28.50
2023-02-11T13:43:04.347Z,28.30
2023-02-11T13:45:46.690Z,28.30
2023-02-11T13:48:31.077Z,28.30
2023-02-11T13:51:09.381Z,28.50
2023-02-11T13:53:58.435Z,28.20
2023-02-11T13:56:44.073Z,28.20
2023-02-11T13:59:27.813Z,28.00
2023-02-11T14:02:35.893Z,28.00
2023-02-11T14:05:42.208Z,27.90
2023-02-11T14:08:43.787Z,28.00
2023-02-11T14:11:25.249Z,27.60
2023-02-11T14:14:29.236Z,27.60
2023-02-11T14:17:07.509Z,27.70
2023-02-11T14:19:45.909Z,27.50
2023-02-11T14:22:59.489Z,27.60
2023-02-11T14:25:34.590Z,27.60
2023-02-11T14:28:23.090Z,27.60
2023-02-11T14:31:10.903Z,28.10
2023-02-11T14:34:08.355Z,27.50
2023-02-11T14:36:53.652Z,27.40
2023-02-11T14:39:53.707Z,27.50
2023-02-11T14:42:30.908Z,27.70
2023-02-11T14:45:12.038Z,27.40
2023-02-11T14:47:55.551Z,27.50
2023-02-11T14:50:47.762Z,27.40
2023-02-11T14:53:25.715Z,26.80
2023-02-11T14:56:00.651Z,26.60
2023-02-11T14:58:35.536Z,26.70
2023-02-11T15:01:41.965Z,26.70
2023-02-11T15:04:36.448Z,26.40
2023-02-11T15:07:14.195Z,26.40
2023-02-11T15:09:52.950Z,26.40
2023-02-11T15:12:28.710Z,26.60
2023-02-11T15:15:03.921Z,26.80
2023-02-11T15:17:38.888Z,27.10
2023-02-11T15:20:25.015Z,27.00
2023-02-11T15:23:04.124Z,27.20
2023-02-11T15:25:45.952Z,27.40
2023-02-11T15:28:32.180Z,27.30
2023-02-11T15:31:17.415Z,27.40
2023-02-11T15:33:53.391Z,27.70
2023-02-11T15:36:29.552Z,27.50
2023-02-11T15:39:36.801Z,27.40
2023-02-11T15:42:35.837Z,27.40
2023-02-11T15:45:15.701Z,27.30
2023-02-11T15:47:54.080Z,27.60
2023-02-11T15:50:35.105Z,27.30
2023-02-11T15:53:31.807Z,27.40
2023-02-11T15:56:24.684Z,27.60
2023-02-11T15:59:10.244Z,27.70
2023-02-11T16:01:46.168Z,27.80
2023-02-11T16:04:26.758Z,27.80
2023-02-11T16:07:01.692Z,28.00
2023-02-11T16:09:37.141Z,28.20
2023-02-11T16:12:29.295Z,28.30
2023-02-11T16:15:33.423Z,28.50
2023-02-11T16:18:40.348Z,28.50
2023-02-11T16:21:18.786Z,28.70
2023-02-11T16:23:56.617Z,28.70
2023-02-11T16:26:43.545Z,28.80
2023-02-11T16:29:25.219Z,29.00
2023-02-11T16:32:24.095Z,28.70
2023-02-11T16:35:01.267Z,29.10
2023-02-11T16:37:38.047Z,29.10
2023-02-11T16:40:14.217Z,29.20
2023-02-11T16:42:50.679Z,29.30
2023-02-11T16:45:27.016Z,29.40
2023-02-11T16:48:02.309Z,29.50
2023-02-11T16:50:37.318Z,29.50
2023-02-11T16:53:14.348Z,29.60
2023-02-11T16:55:50.117Z,29.60
2023-02-11T16:58:25.220Z,29.70
2023-02-11T17:01:00.704Z,29.80
2023-02-11T17:03:40.000Z,29.70
2023-02-11T17:06:15.035Z,29.80
2023-02-11T17:08:50.071Z,30.60
2023-02-11T17:11:24.958Z,30.70
2023-02-11T17:13:59.872Z,30.80
2023-02-11T17:16:34.831Z,30.90
2023-02-11T17:19:14.661Z,30.90
2023-02-11T17:21:52.181Z,31.10
2023-02-11T17:24:27.111Z,31.10
2023-02-11T17:27:02.171Z,31.10
2023-02-11T17:29:37.150Z,31.40
2023-02-11T17:32:12.157Z,31.40
2023-02-11T17:34:47.032Z,31.30
2023-02-11T17:37:22.353Z,31.50
2023-02-11T17:39:57.218Z,31.50
2023-02-11T17:42:32.170Z,31.50
2023-02-11T17:45:08.546Z,31.60
2023-02-11T17:47:43.885Z,31.50
2023-02-11T17:50:19.046Z,32.00
2023-02-11T17:52:55.115Z,31.80
2023-02-11T17:55:34.172Z,31.70
2023-02-11T17:58:09.108Z,31.80
2023-02-11T18:00:44.892Z,31.80
2023-02-11T18:03:19.777Z,32.00
2023-02-11T18:05:59.739Z,32.00
2023-02-11T18:08:36.143Z,32.00
2023-02-11T18:11:13.139Z,31.90
2023-02-11T18:13:54.227Z,31.90
2023-02-11T18:16:30.448Z,32.00
2023-02-11T18:19:07.490Z,32.00
2023-02-11T18:21:42.538Z,32.10
2023-02-11T18:24:18.058Z,32.10
2023-02-11T18:26:53.017Z,32.20
2023-02-11T18:29:27.993Z,32.20
2023-02-11T18:32:02.901Z,32.20
2023-02-11T18:34:40.368Z,32.20
2023-02-11T18:37:16.315Z,32.20
2023-02-11T18:39:51.363Z,32.20
2023-02-11T18:42:26.374Z,32.20
2023-02-11T18:45:01.371Z,32.20
2023-02-11T18:47:38.249Z,32.20
2023-02-11T18:50:15.518Z,32.20
2023-02-11T18:52:50.690Z,32.20
2023-02-11T18:55:26.113Z,32.20
2023-02-11T18:58:04.782Z,32.40
2023-02-11T19:00:46.960Z,32.30
2023-02-11T19:03:22.200Z,32.30
2023-02-11T19:05:57.301Z,32.30
2023-02-11T19:08:32.868Z,32.30
2023-02-11T19:11:07.973Z,32.30
2023-02-11T19:13:42.971Z,32.30
2023-02-11T19:16:22.323Z,32.40
2023-02-11T19:18:57.368Z,32.50
2023-02-11T19:21:33.579Z,32.40
2023-02-11T19:24:09.750Z,32.50
2023-02-11T19:26:46.926Z,32.60
2023-02-11T19:29:22.170Z,32.50
2023-02-11T19:31:58.710Z,32.50
2023-02-11T19:34:40.905Z,32.60
2023-02-11T19:37:16.024Z,32.60
2023-02-11T19:39:50.989Z,32.60
2023-02-11T19:42:27.675Z,32.60
2023-02-11T19:45:02.815Z,32.50
2023-02-11T19:47:37.889Z,32.60
2023-02-11T19:50:13.110Z,32.60
2023-02-11T19:52:48.050Z,32.60
2023-02-11T19:55:23.250Z,32.60
2023-02-11T19:57:58.517Z,32.60
2023-02-11T20:00:33.549Z,32.70
2023-02-11T20:03:08.759Z,32.60
2023-02-11T20:05:47.071Z,32.70
2023-02-11T20:08:22.863Z,32.70
2023-02-11T20:10:57.767Z,32.60
2023-02-11T20:13:34.077Z,32.70
2023-02-11T20:16:16.758Z,32.60
2023-02-11T20:18:53.080Z,32.70
2023-02-11T20:21:30.864Z,32.70
2023-02-11T20:24:05.994Z,32.70
2023-02-11T20:26:42.440Z,32.70
2023-02-11T20:29:18.718Z,32.80
2023-02-11T20:31:54.745Z,32.70
2023-02-11T20:34:29.952Z,32.70
2023-02-11T20:37:06.001Z,32.70
2023-02-11T20:39:41.923Z,32.70
2023-02-11T20:42:16.871Z,32.80
2023-02-11T20:44:51.969Z,32.70
2023-02-11T20:47:27.201Z,32.80
2023-02-11T20:50:03.130Z,32.80
2023-02-11T20:52:38.166Z,32.80
2023-02-11T20:55:13.179Z,32.80
2023-02-11T20:57:48.966Z,32.90
2023-02-11T21:00:24.028Z,32.80
2023-02-11T21:02:59.210Z,33.00
2023-02-11T21:05:34.609Z,32.90
2023-02-11T21:08:09.522Z,32.90
2023-02-11T21:10:44.943Z,32.90
2023-02-11T21:13:19.955Z,32.90
2023-02-11T21:15:56.510Z,33.00
2023-02-11T21:18:32.084Z,33.40
2023-02-11T21:21:08.484Z,33.10
2023-02-11T21:23:43.677Z,33.10
2023-02-11T21:26:18.621Z,33.20
2023-02-11T21:28:55.103Z,33.20
2023-02-11T21:31:42.447Z,33.20
2023-02-11T21:34:17.988Z,33.20
2023-02-11T21:36:53.043Z,33.30
2023-02-11T21:39:28.287Z,33.40
2023-02-11T21:42:04.390Z,33.50
2023-02-11T21:44:42.846Z,33.50
2023-02-11T21:47:17.827Z,33.60
2023-02-11T21:49:52.718Z,33.40
2023-02-11T21:52:29.305Z,33.60
2023-02-11T21:55:04.693Z,33.50
2023-02-11T21:57:39.596Z,33.50
2023-02-11T22:00:18.175Z,33.60
2023-02-11T22:02:54.233Z,33.60
2023-02-11T22:05:29.348Z,33.60
2023-02-11T22:08:04.369Z,33.60
2023-02-11T22:10:39.704Z,33.70
2023-02-11T22:13:14.607Z,33.70
2023-02-11T22:16:02.053Z,33.80
2023-02-11T22:18:37.609Z,33.80
2023-02-11T22:21:17.013Z,33.90
2023-02-11T22:23:52.179Z,33.90
2023-02-11T22:26:28.284Z,33.90
2023-02-11T22:29:03.585Z,33.90
2023-02-11T22:31:39.112Z,33.90
2023-02-11T22:34:14.057Z,34.00
2023-02-11T22:36:50.051Z,34.00
2023-02-11T22:39:25.211Z,34.00
2023-02-11T22:42:00.211Z,34.10
2023-02-11T22:44:35.118Z,34.10
2023-02-11T22:47:10.057Z,34.20
2023-02-11T22:49:44.946Z,34.20
2023-02-11T22:52:19.813Z,34.20
2023-02-11T22:54:55.212Z,34.20
2023-02-11T22:57:30.128Z,34.20
2023-02-11T23:00:09.746Z,34.20
2023-02-11T23:02:45.817Z,34.10
2023-02-11T23:05:21.942Z,34.20
2023-02-11T23:07:56.871Z,34.20
2023-02-11T23:10:31.795Z,34.30
2023-02-11T23:13:10.006Z,34.20
2023-02-11T23:15:47.543Z,34.20
2023-02-11T23:18:22.560Z,34.30
2023-02-11T23:21:09.035Z,34.20
2023-02-11T23:23:45.925Z,34.20
2023-02-11T23:26:21.923Z,34.20
2023-02-11T23:29:01.970Z,34.30
2023-02-11T23:31:40.378Z,34.30
2023-02-11T23:34:17.264Z,34.30
2023-02-11T23:36:52.760Z,34.30
2023-02-11T23:39:27.807Z,34.30
2023-02-11T23:42:02.745Z,34.30
2023-02-11T23:44:38.048Z,34.40
2023-02-11T23:47:12.980Z,34.40
2023-02-11T23:49:47.943Z,34.50
2023-02-11T23:52:22.862Z,34.50
2023-02-11T23:54:57.874Z,34.50
2023-02-11T23:57:34.229Z,34.50
